sensor_id;sensor_type;location;lat;lon;timestamp;P1;durP1;ratioP1;P2;durP2;ratioP2
58992;SDS011;44782;0.000;0.000;2023-04-22T00:00:03;2.63;;;2.43;;
58992;SDS011;44782;0.000;0.000;2023-04-22T00:02:20;2.83;;;2.63;;
58992;SDS011;44782;0.000;0.000;2023-04-22T00:04:37;2.70;;;2.50;;
58992;SDS011;44782;0.000;0.000;2023-04-22T00:06:52;3.03;;;2.83;;
58992;SDS011;44782;0.000;0.000;2023-04-22T00:09:08;2.70;;;2.50;;
58992;SDS011;44782;0.000;0.000;2023-04-22T00:11:24;2.83;;;2.63;;
58992;SDS011;44782;0.000;0.000;2023-04-22T00:13:40;2.90;;;2.70;;
58992;SDS011;44782;0.000;0.000;2023-04-22T00:15:56;3.13;;;2.67;;
58992;SDS011;44782;0.000;0.000;2023-04-22T00:18:12;2.83;;;2.63;;
58992;SDS011;44782;0.000;0.000;2023-04-22T00:20:30;2.70;;;2.50;;
58992;SDS011;44782;0.000;0.000;2023-04-22T00:22:46;2.80;;;2.60;;
58992;SDS011;44782;0.000;0.000;2023-04-22T00:25:02;2.90;;;2.70;;
58992;SDS011;44782;0.000;0.000;2023-04-22T00:27:18;2.73;;;2.53;;
58992;SDS011;44782;0.000;0.000;2023-04-22T00:29:34;2.87;;;2.67;;
58992;SDS011;44782;0.000;0.000;2023-04-22T00:31:49;3.10;;;2.90;;
58992;SDS011;44782;0.000;0.000;2023-04-22T00:34:05;3.17;;;2.63;;
58992;SDS011;44782;0.000;0.000;2023-04-22T00:36:21;2.80;;;2.60;;
58992;SDS011;44782;0.000;0.000;2023-04-22T00:38:36;3.30;;;3.00;;
58992;SDS011;44782;0.000;0.000;2023-04-22T00:40:52;2.90;;;2.70;;
58992;SDS011;44782;0.000;0.000;2023-04-22T00:43:08;2.70;;;2.50;;
58992;SDS011;44782;0.000;0.000;2023-04-22T00:45:24;2.80;;;2.60;;
58992;SDS011;44782;0.000;0.000;2023-04-22T00:47:40;2.73;;;2.53;;
58992;SDS011;44782;0.000;0.000;2023-04-22T00:49:56;3.13;;;2.93;;
58992;SDS011;44782;0.000;0.000;2023-04-22T00:52:14;2.70;;;2.50;;
58992;SDS011;44782;0.000;0.000;2023-04-22T00:54:30;3.00;;;2.80;;
58992;SDS011;44782;0.000;0.000;2023-04-22T00:56:48;2.80;;;2.60;;
58992;SDS011;44782;0.000;0.000;2023-04-22T00:59:03;2.90;;;2.70;;
58992;SDS011;44782;0.000;0.000;2023-04-22T01:01:19;2.77;;;2.57;;
58992;SDS011;44782;0.000;0.000;2023-04-22T01:03:36;2.80;;;2.50;;
58992;SDS011;44782;0.000;0.000;2023-04-22T01:05:54;2.80;;;2.60;;
58992;SDS011;44782;0.000;0.000;2023-04-22T01:08:11;2.90;;;2.70;;
58992;SDS011;44782;0.000;0.000;2023-04-22T01:10:27;3.00;;;2.80;;
58992;SDS011;44782;0.000;0.000;2023-04-22T01:12:42;3.30;;;3.00;;
58992;SDS011;44782;0.000;0.000;2023-04-22T01:14:58;2.80;;;2.60;;
58992;SDS011;44782;0.000;0.000;2023-04-22T01:17:14;3.00;;;2.80;;
58992;SDS011;44782;0.000;0.000;2023-04-22T01:19:30;2.90;;;2.70;;
58992;SDS011;44782;0.000;0.000;2023-04-22T01:21:46;2.73;;;2.53;;
58992;SDS011;44782;0.000;0.000;2023-04-22T01:24:06;3.00;;;2.80;;
58992;SDS011;44782;0.000;0.000;2023-04-22T01:26:22;2.80;;;2.60;;
58992;SDS011;44782;0.000;0.000;2023-04-22T01:28:37;2.40;;;2.30;;
58992;SDS011;44782;0.000;0.000;2023-04-22T01:30:54;2.80;;;2.60;;
58992;SDS011;44782;0.000;0.000;2023-04-22T01:33:10;2.80;;;2.60;;
58992;SDS011;44782;0.000;0.000;2023-04-22T01:35:26;2.97;;;2.77;;
58992;SDS011;44782;0.000;0.000;2023-04-22T01:37:44;2.73;;;2.53;;
58992;SDS011;44782;0.000;0.000;2023-04-22T01:39:59;2.93;;;2.73;;
58992;SDS011;44782;0.000;0.000;2023-04-22T01:42:15;3.00;;;2.80;;
58992;SDS011;44782;0.000;0.000;2023-04-22T01:44:31;3.13;;;2.93;;
58992;SDS011;44782;0.000;0.000;2023-04-22T01:46:47;2.73;;;2.53;;
58992;SDS011;44782;0.000;0.000;2023-04-22T01:49:03;3.00;;;2.80;;
58992;SDS011;44782;0.000;0.000;2023-04-22T01:51:18;2.70;;;2.50;;
58992;SDS011;44782;0.000;0.000;2023-04-22T01:53:35;2.93;;;2.57;;
58992;SDS011;44782;0.000;0.000;2023-04-22T01:55:50;3.00;;;2.80;;
58992;SDS011;44782;0.000;0.000;2023-04-22T01:58:06;2.90;;;2.70;;
58992;SDS011;44782;0.000;0.000;2023-04-22T02:00:22;2.80;;;2.60;;
58992;SDS011;44782;0.000;0.000;2023-04-22T02:02:38;3.03;;;2.83;;
58992;SDS011;44782;0.000;0.000;2023-04-22T02:04:54;2.87;;;2.67;;
58992;SDS011;44782;0.000;0.000;2023-04-22T02:09:35;2.57;;;2.43;;
58992;SDS011;44782;0.000;0.000;2023-04-22T02:11:54;2.90;;;2.70;;
58992;SDS011;44782;0.000;0.000;2023-04-22T02:14:10;2.93;;;2.73;;
58992;SDS011;44782;0.000;0.000;2023-04-22T02:16:25;2.70;;;2.50;;
58992;SDS011;44782;0.000;0.000;2023-04-22T02:18:41;2.87;;;2.67;;
58992;SDS011;44782;0.000;0.000;2023-04-22T02:20:57;2.77;;;2.57;;
58992;SDS011;44782;0.000;0.000;2023-04-22T02:23:13;2.80;;;2.60;;
58992;SDS011;44782;0.000;0.000;2023-04-22T02:25:29;2.90;;;2.70;;
58992;SDS011;44782;0.000;0.000;2023-04-22T02:27:46;2.87;;;2.67;;
58992;SDS011;44782;0.000;0.000;2023-04-22T02:30:02;2.83;;;2.63;;
58992;SDS011;44782;0.000;0.000;2023-04-22T02:32:18;2.90;;;2.70;;
58992;SDS011;44782;0.000;0.000;2023-04-22T02:34:33;3.00;;;2.80;;
58992;SDS011;44782;0.000;0.000;2023-04-22T02:36:50;2.83;;;2.63;;
58992;SDS011;44782;0.000;0.000;2023-04-22T02:39:05;2.97;;;2.77;;
58992;SDS011;44782;0.000;0.000;2023-04-22T02:41:21;2.97;;;2.77;;
58992;SDS011;44782;0.000;0.000;2023-04-22T02:43:37;2.90;;;2.70;;
58992;SDS011;44782;0.000;0.000;2023-04-22T02:45:53;2.90;;;2.70;;
58992;SDS011;44782;0.000;0.000;2023-04-22T02:48:08;2.80;;;2.60;;
58992;SDS011;44782;0.000;0.000;2023-04-22T02:50:24;2.70;;;2.50;;
58992;SDS011;44782;0.000;0.000;2023-04-22T02:52:40;2.87;;;2.67;;
58992;SDS011;44782;0.000;0.000;2023-04-22T02:54:59;2.90;;;2.70;;
58992;SDS011;44782;0.000;0.000;2023-04-22T02:57:15;2.80;;;2.60;;
58992;SDS011;44782;0.000;0.000;2023-04-22T02:59:30;3.10;;;2.90;;
58992;SDS011;44782;0.000;0.000;2023-04-22T03:01:46;3.00;;;2.80;;
58992;SDS011;44782;0.000;0.000;2023-04-22T03:04:02;2.90;;;2.70;;
58992;SDS011;44782;0.000;0.000;2023-04-22T03:06:17;2.93;;;2.73;;
58992;SDS011;44782;0.000;0.000;2023-04-22T03:08:33;3.00;;;2.80;;
58992;SDS011;44782;0.000;0.000;2023-04-22T03:10:49;3.10;;;2.90;;
58992;SDS011;44782;0.000;0.000;2023-04-22T03:13:04;2.90;;;2.70;;
58992;SDS011;44782;0.000;0.000;2023-04-22T03:15:20;3.07;;;2.87;;
58992;SDS011;44782;0.000;0.000;2023-04-22T03:17:36;3.17;;;2.97;;
58992;SDS011;44782;0.000;0.000;2023-04-22T03:19:51;3.20;;;2.90;;
58992;SDS011;44782;0.000;0.000;2023-04-22T03:22:07;3.00;;;2.80;;
58992;SDS011;44782;0.000;0.000;2023-04-22T03:24:22;3.00;;;2.70;;
58992;SDS011;44782;0.000;0.000;2023-04-22T03:26:38;3.17;;;2.87;;
58992;SDS011;44782;0.000;0.000;2023-04-22T03:28:54;2.90;;;2.70;;
58992;SDS011;44782;0.000;0.000;2023-04-22T03:31:09;3.00;;;2.80;;
58992;SDS011;44782;0.000;0.000;2023-04-22T03:33:25;3.03;;;2.83;;
58992;SDS011;44782;0.000;0.000;2023-04-22T03:35:41;3.00;;;2.80;;
58992;SDS011;44782;0.000;0.000;2023-04-22T03:37:57;2.47;;;2.37;;
58992;SDS011;44782;0.000;0.000;2023-04-22T03:40:12;2.97;;;2.77;;
58992;SDS011;44782;0.000;0.000;2023-04-22T03:42:28;3.00;;;2.80;;
58992;SDS011;44782;0.000;0.000;2023-04-22T03:44:44;2.87;;;2.67;;
58992;SDS011;44782;0.000;0.000;2023-04-22T03:47:00;2.97;;;2.77;;
58992;SDS011;44782;0.000;0.000;2023-04-22T03:49:15;2.90;;;2.70;;
58992;SDS011;44782;0.000;0.000;2023-04-22T03:51:31;2.90;;;2.70;;
58992;SDS011;44782;0.000;0.000;2023-04-22T03:53:46;2.80;;;2.60;;
58992;SDS011;44782;0.000;0.000;2023-04-22T03:56:02;3.20;;;3.00;;
58992;SDS011;44782;0.000;0.000;2023-04-22T03:58:18;2.83;;;2.63;;
58992;SDS011;44782;0.000;0.000;2023-04-22T04:00:34;2.90;;;2.70;;
58992;SDS011;44782;0.000;0.000;2023-04-22T04:02:49;3.20;;;3.00;;
58992;SDS011;44782;0.000;0.000;2023-04-22T04:05:05;3.00;;;2.80;;
58992;SDS011;44782;0.000;0.000;2023-04-22T04:07:23;2.97;;;2.77;;
58992;SDS011;44782;0.000;0.000;2023-04-22T04:09:38;2.90;;;2.70;;
58992;SDS011;44782;0.000;0.000;2023-04-22T04:11:54;3.10;;;2.80;;
58992;SDS011;44782;0.000;0.000;2023-04-22T04:14:10;2.53;;;2.43;;
58992;SDS011;44782;0.000;0.000;2023-04-22T04:16:26;3.00;;;2.80;;
58992;SDS011;44782;0.000;0.000;2023-04-22T04:18:42;3.03;;;2.83;;
58992;SDS011;44782;0.000;0.000;2023-04-22T04:20:57;3.20;;;3.00;;
58992;SDS011;44782;0.000;0.000;2023-04-22T04:23:13;3.43;;;3.13;;
58992;SDS011;44782;0.000;0.000;2023-04-22T04:25:28;3.07;;;2.87;;
58992;SDS011;44782;0.000;0.000;2023-04-22T04:27:51;3.10;;;2.90;;
58992;SDS011;44782;0.000;0.000;2023-04-22T04:30:07;3.10;;;2.90;;
58992;SDS011;44782;0.000;0.000;2023-04-22T04:32:23;3.10;;;2.90;;
58992;SDS011;44782;0.000;0.000;2023-04-22T04:34:39;3.10;;;2.90;;
58992;SDS011;44782;0.000;0.000;2023-04-22T04:36:56;3.20;;;2.90;;
58992;SDS011;44782;0.000;0.000;2023-04-22T04:39:12;3.03;;;2.83;;
58992;SDS011;44782;0.000;0.000;2023-04-22T04:41:32;3.10;;;2.90;;
58992;SDS011;44782;0.000;0.000;2023-04-22T04:43:48;3.10;;;2.90;;
58992;SDS011;44782;0.000;0.000;2023-04-22T04:46:04;3.17;;;2.97;;
58992;SDS011;44782;0.000;0.000;2023-04-22T04:48:20;3.00;;;2.80;;
58992;SDS011;44782;0.000;0.000;2023-04-22T04:50:40;3.37;;;3.10;;
58992;SDS011;44782;0.000;0.000;2023-04-22T04:52:56;3.27;;;3.07;;
58992;SDS011;44782;0.000;0.000;2023-04-22T04:55:12;3.30;;;3.10;;
58992;SDS011;44782;0.000;0.000;2023-04-22T04:57:27;3.00;;;2.80;;
58992;SDS011;44782;0.000;0.000;2023-04-22T04:59:43;3.27;;;3.00;;
58992;SDS011;44782;0.000;0.000;2023-04-22T05:01:59;3.50;;;3.20;;
58992;SDS011;44782;0.000;0.000;2023-04-22T05:04:14;3.73;;;3.43;;
58992;SDS011;44782;0.000;0.000;2023-04-22T05:06:30;3.40;;;3.20;;
58992;SDS011;44782;0.000;0.000;2023-04-22T05:08:47;3.40;;;3.20;;
58992;SDS011;44782;0.000;0.000;2023-04-22T05:11:03;3.90;;;3.60;;
58992;SDS011;44782;0.000;0.000;2023-04-22T05:13:18;3.83;;;3.43;;
58992;SDS011;44782;0.000;0.000;2023-04-22T05:15:34;3.40;;;3.10;;
58992;SDS011;44782;0.000;0.000;2023-04-22T05:17:50;3.30;;;3.10;;
58992;SDS011;44782;0.000;0.000;2023-04-22T05:20:06;3.67;;;3.37;;
58992;SDS011;44782;0.000;0.000;2023-04-22T05:22:22;3.50;;;3.20;;
58992;SDS011;44782;0.000;0.000;2023-04-22T05:24:38;3.53;;;3.23;;
58992;SDS011;44782;0.000;0.000;2023-04-22T05:26:53;3.13;;;2.93;;
58992;SDS011;44782;0.000;0.000;2023-04-22T05:29:09;3.40;;;3.20;;
58992;SDS011;44782;0.000;0.000;2023-04-22T05:31:24;3.70;;;3.40;;
58992;SDS011;44782;0.000;0.000;2023-04-22T05:33:40;3.27;;;3.07;;
58992;SDS011;44782;0.000;0.000;2023-04-22T05:35:56;3.30;;;3.10;;
58992;SDS011;44782;0.000;0.000;2023-04-22T05:38:11;3.47;;;3.17;;
58992;SDS011;44782;0.000;0.000;2023-04-22T05:40:27;3.40;;;3.13;;
58992;SDS011;44782;0.000;0.000;2023-04-22T05:42:43;3.40;;;3.20;;
58992;SDS011;44782;0.000;0.000;2023-04-22T05:44:58;3.03;;;2.83;;
58992;SDS011;44782;0.000;0.000;2023-04-22T05:47:14;3.33;;;3.03;;
58992;SDS011;44782;0.000;0.000;2023-04-22T05:49:30;3.30;;;3.10;;
58992;SDS011;44782;0.000;0.000;2023-04-22T05:51:45;3.47;;;3.23;;
58992;SDS011;44782;0.000;0.000;2023-04-22T05:54:01;3.60;;;3.30;;
58992;SDS011;44782;0.000;0.000;2023-04-22T05:56:17;3.60;;;3.30;;
58992;SDS011;44782;0.000;0.000;2023-04-22T05:58:34;3.50;;;3.30;;
58992;SDS011;44782;0.000;0.000;2023-04-22T06:00:49;3.37;;;3.17;;
58992;SDS011;44782;0.000;0.000;2023-04-22T06:03:05;3.53;;;3.23;;
58992;SDS011;44782;0.000;0.000;2023-04-22T06:05:20;3.70;;;3.40;;
58992;SDS011;44782;0.000;0.000;2023-04-22T06:07:36;3.20;;;3.00;;
58992;SDS011;44782;0.000;0.000;2023-04-22T06:09:52;3.37;;;3.17;;
58992;SDS011;44782;0.000;0.000;2023-04-22T06:12:09;3.40;;;3.20;;
58992;SDS011;44782;0.000;0.000;2023-04-22T06:14:25;3.67;;;3.40;;
58992;SDS011;44782;0.000;0.000;2023-04-22T06:16:40;3.80;;;3.50;;
58992;SDS011;44782;0.000;0.000;2023-04-22T06:18:56;3.20;;;3.00;;
58992;SDS011;44782;0.000;0.000;2023-04-22T06:21:12;3.23;;;3.03;;
58992;SDS011;44782;0.000;0.000;2023-04-22T06:23:27;3.50;;;3.30;;
58992;SDS011;44782;0.000;0.000;2023-04-22T06:25:43;3.87;;;3.63;;
58992;SDS011;44782;0.000;0.000;2023-04-22T06:27:59;3.30;;;3.10;;
58992;SDS011;44782;0.000;0.000;2023-04-22T06:30:14;3.73;;;3.43;;
58992;SDS011;44782;0.000;0.000;2023-04-22T06:32:30;3.20;;;3.00;;
58992;SDS011;44782;0.000;0.000;2023-04-22T06:34:46;3.50;;;3.30;;
58992;SDS011;44782;0.000;0.000;2023-04-22T06:37:01;3.73;;;3.43;;
58992;SDS011;44782;0.000;0.000;2023-04-22T06:39:17;3.43;;;3.23;;
58992;SDS011;44782;0.000;0.000;2023-04-22T06:41:32;3.67;;;3.37;;
58992;SDS011;44782;0.000;0.000;2023-04-22T06:43:48;3.20;;;3.00;;
58992;SDS011;44782;0.000;0.000;2023-04-22T06:46:04;3.70;;;3.40;;
58992;SDS011;44782;0.000;0.000;2023-04-22T06:48:19;3.80;;;3.50;;
58992;SDS011;44782;0.000;0.000;2023-04-22T06:50:35;3.80;;;3.50;;
58992;SDS011;44782;0.000;0.000;2023-04-22T06:52:51;4.00;;;3.70;;
58992;SDS011;44782;0.000;0.000;2023-04-22T06:55:07;3.43;;;3.23;;
58992;SDS011;44782;0.000;0.000;2023-04-22T06:57:23;3.93;;;3.63;;
58992;SDS011;44782;0.000;0.000;2023-04-22T06:59:38;4.00;;;3.70;;
58992;SDS011;44782;0.000;0.000;2023-04-22T07:01:54;3.80;;;3.50;;
58992;SDS011;44782;0.000;0.000;2023-04-22T07:04:10;3.50;;;3.30;;
58992;SDS011;44782;0.000;0.000;2023-04-22T07:06:25;4.00;;;3.70;;
58992;SDS011;44782;0.000;0.000;2023-04-22T07:08:41;4.00;;;3.70;;
58992;SDS011;44782;0.000;0.000;2023-04-22T07:10:57;4.37;;;3.97;;
58992;SDS011;44782;0.000;0.000;2023-04-22T07:13:13;3.73;;;3.53;;
58992;SDS011;44782;0.000;0.000;2023-04-22T07:15:28;4.00;;;3.70;;
58992;SDS011;44782;0.000;0.000;2023-04-22T07:17:44;3.83;;;3.53;;
58992;SDS011;44782;0.000;0.000;2023-04-22T07:20:00;3.80;;;3.50;;
58992;SDS011;44782;0.000;0.000;2023-04-22T07:22:16;4.13;;;3.83;;
58992;SDS011;44782;0.000;0.000;2023-04-22T07:24:31;4.10;;;3.80;;
58992;SDS011;44782;0.000;0.000;2023-04-22T07:26:47;4.03;;;3.73;;
58992;SDS011;44782;0.000;0.000;2023-04-22T07:29:03;4.10;;;3.80;;
58992;SDS011;44782;0.000;0.000;2023-04-22T07:31:18;4.03;;;3.73;;
58992;SDS011;44782;0.000;0.000;2023-04-22T07:33:34;3.90;;;3.60;;
58992;SDS011;44782;0.000;0.000;2023-04-22T07:35:50;4.10;;;3.80;;
58992;SDS011;44782;0.000;0.000;2023-04-22T07:38:05;3.73;;;3.53;;
58992;SDS011;44782;0.000;0.000;2023-04-22T07:40:21;4.20;;;3.90;;
58992;SDS011;44782;0.000;0.000;2023-04-22T07:42:37;3.67;;;3.47;;
58992;SDS011;44782;0.000;0.000;2023-04-22T07:44:54;3.73;;;3.47;;
58992;SDS011;44782;0.000;0.000;2023-04-22T07:47:09;4.03;;;3.73;;
58992;SDS011;44782;0.000;0.000;2023-04-22T07:49:25;4.30;;;3.90;;
58992;SDS011;44782;0.000;0.000;2023-04-22T07:51:41;4.10;;;3.80;;
58992;SDS011;44782;0.000;0.000;2023-04-22T07:53:59;3.87;;;3.60;;
58992;SDS011;44782;0.000;0.000;2023-04-22T07:56:15;4.10;;;3.80;;
58992;SDS011;44782;0.000;0.000;2023-04-22T07:58:31;3.87;;;3.57;;
58992;SDS011;44782;0.000;0.000;2023-04-22T08:00:46;3.63;;;3.43;;
58992;SDS011;44782;0.000;0.000;2023-04-22T08:03:02;3.60;;;3.37;;
58992;SDS011;44782;0.000;0.000;2023-04-22T08:05:18;3.60;;;3.40;;
58992;SDS011;44782;0.000;0.000;2023-04-22T08:07:34;4.00;;;3.70;;
58992;SDS011;44782;0.000;0.000;2023-04-22T08:09:50;3.90;;;3.60;;
58992;SDS011;44782;0.000;0.000;2023-04-22T08:12:06;3.90;;;3.60;;
58992;SDS011;44782;0.000;0.000;2023-04-22T08:14:21;3.83;;;3.53;;
58992;SDS011;44782;0.000;0.000;2023-04-22T08:16:38;3.97;;;3.67;;
58992;SDS011;44782;0.000;0.000;2023-04-22T08:18:54;3.63;;;3.43;;
58992;SDS011;44782;0.000;0.000;2023-04-22T08:21:11;3.77;;;3.47;;
58992;SDS011;44782;0.000;0.000;2023-04-22T08:23:27;3.47;;;3.27;;
58992;SDS011;44782;0.000;0.000;2023-04-22T08:25:42;4.00;;;3.70;;
58992;SDS011;44782;0.000;0.000;2023-04-22T08:27:58;3.47;;;3.27;;
58992;SDS011;44782;0.000;0.000;2023-04-22T08:30:14;3.50;;;3.20;;
58992;SDS011;44782;0.000;0.000;2023-04-22T08:32:30;3.53;;;3.33;;
58992;SDS011;44782;0.000;0.000;2023-04-22T08:34:45;4.07;;;3.77;;
58992;SDS011;44782;0.000;0.000;2023-04-22T08:37:01;3.83;;;3.53;;
58992;SDS011;44782;0.000;0.000;2023-04-22T08:39:17;3.77;;;3.47;;
58992;SDS011;44782;0.000;0.000;2023-04-22T08:41:33;3.47;;;3.20;;
58992;SDS011;44782;0.000;0.000;2023-04-22T08:43:49;4.10;;;3.80;;
58992;SDS011;44782;0.000;0.000;2023-04-22T08:46:07;4.07;;;3.77;;
58992;SDS011;44782;0.000;0.000;2023-04-22T08:48:22;3.90;;;3.60;;
58992;SDS011;44782;0.000;0.000;2023-04-22T08:50:39;3.60;;;3.40;;
58992;SDS011;44782;0.000;0.000;2023-04-22T08:52:55;3.87;;;3.60;;
58992;SDS011;44782;0.000;0.000;2023-04-22T08:55:11;3.70;;;3.50;;
58992;SDS011;44782;0.000;0.000;2023-04-22T08:57:26;4.30;;;4.00;;
58992;SDS011;44782;0.000;0.000;2023-04-22T08:59:43;3.83;;;3.53;;
58992;SDS011;44782;0.000;0.000;2023-04-22T09:02:00;4.00;;;3.70;;
58992;SDS011;44782;0.000;0.000;2023-04-22T09:04:17;4.10;;;3.80;;
58992;SDS011;44782;0.000;0.000;2023-04-22T09:06:33;4.10;;;3.80;;
58992;SDS011;44782;0.000;0.000;2023-04-22T09:08:49;4.17;;;3.87;;
58992;SDS011;44782;0.000;0.000;2023-04-22T09:11:05;4.23;;;3.93;;
58992;SDS011;44782;0.000;0.000;2023-04-22T09:13:20;4.10;;;3.80;;
58992;SDS011;44782;0.000;0.000;2023-04-22T09:15:38;4.20;;;3.90;;
58992;SDS011;44782;0.000;0.000;2023-04-22T09:17:53;4.13;;;3.83;;
58992;SDS011;44782;0.000;0.000;2023-04-22T09:20:09;3.90;;;3.60;;
58992;SDS011;44782;0.000;0.000;2023-04-22T09:22:27;4.17;;;3.87;;
58992;SDS011;44782;0.000;0.000;2023-04-22T09:24:50;3.93;;;3.63;;
58992;SDS011;44782;0.000;0.000;2023-04-22T09:27:06;4.27;;;3.97;;
58992;SDS011;44782;0.000;0.000;2023-04-22T09:29:22;4.30;;;4.00;;
58992;SDS011;44782;0.000;0.000;2023-04-22T09:31:47;4.00;;;3.70;;
58992;SDS011;44782;0.000;0.000;2023-04-22T09:34:04;4.30;;;4.00;;
58992;SDS011;44782;0.000;0.000;2023-04-22T09:36:26;4.40;;;4.00;;
58992;SDS011;44782;0.000;0.000;2023-04-22T09:38:50;4.00;;;3.70;;
58992;SDS011;44782;0.000;0.000;2023-04-22T09:41:10;4.40;;;4.10;;
58992;SDS011;44782;0.000;0.000;2023-04-22T09:43:26;3.50;;;3.30;;
58992;SDS011;44782;0.000;0.000;2023-04-22T09:45:46;3.87;;;3.60;;
58992;SDS011;44782;0.000;0.000;2023-04-22T09:48:06;3.63;;;3.33;;
58992;SDS011;44782;0.000;0.000;2023-04-22T09:50:25;4.00;;;3.70;;
58992;SDS011;44782;0.000;0.000;2023-04-22T09:52:42;3.80;;;3.50;;
58992;SDS011;44782;0.000;0.000;2023-04-22T09:54:57;4.30;;;4.00;;
58992;SDS011;44782;0.000;0.000;2023-04-22T09:57:13;4.33;;;4.00;;
58992;SDS011;44782;0.000;0.000;2023-04-22T09:59:31;4.13;;;3.83;;
58992;SDS011;44782;0.000;0.000;2023-04-22T10:01:47;4.10;;;3.80;;
58992;SDS011;44782;0.000;0.000;2023-04-22T10:04:03;3.77;;;3.50;;
58992;SDS011;44782;0.000;0.000;2023-04-22T10:06:19;4.13;;;3.83;;
58992;SDS011;44782;0.000;0.000;2023-04-22T10:08:35;3.83;;;3.53;;
58992;SDS011;44782;0.000;0.000;2023-04-22T10:10:51;3.87;;;3.57;;
58992;SDS011;44782;0.000;0.000;2023-04-22T10:13:07;3.87;;;3.60;;
58992;SDS011;44782;0.000;0.000;2023-04-22T10:15:23;4.33;;;4.03;;
58992;SDS011;44782;0.000;0.000;2023-04-22T10:17:40;4.00;;;3.70;;
58992;SDS011;44782;0.000;0.000;2023-04-22T10:20:02;4.00;;;3.70;;
58992;SDS011;44782;0.000;0.000;2023-04-22T10:22:20;4.17;;;3.87;;
58992;SDS011;44782;0.000;0.000;2023-04-22T10:24:36;4.00;;;3.70;;
58992;SDS011;44782;0.000;0.000;2023-04-22T10:29:14;4.47;;;3.80;;
58992;SDS011;44782;0.000;0.000;2023-04-22T10:31:32;3.70;;;3.50;;
58992;SDS011;44782;0.000;0.000;2023-04-22T10:33:48;4.17;;;3.87;;
58992;SDS011;44782;0.000;0.000;2023-04-22T10:36:14;3.87;;;3.57;;
58992;SDS011;44782;0.000;0.000;2023-04-22T10:38:35;3.90;;;3.60;;
58992;SDS011;44782;0.000;0.000;2023-04-22T10:40:58;4.20;;;3.80;;
58992;SDS011;44782;0.000;0.000;2023-04-22T10:43:14;4.20;;;3.90;;
58992;SDS011;44782;0.000;0.000;2023-04-22T10:45:33;4.10;;;3.80;;
58992;SDS011;44782;0.000;0.000;2023-04-22T10:47:50;4.47;;;4.17;;
58992;SDS011;44782;0.000;0.000;2023-04-22T10:50:25;4.10;;;3.80;;
58992;SDS011;44782;0.000;0.000;2023-04-22T10:52:42;4.07;;;3.77;;
58992;SDS011;44782;0.000;0.000;2023-04-22T10:55:00;4.23;;;3.87;;
58992;SDS011;44782;0.000;0.000;2023-04-22T10:57:19;4.17;;;3.87;;
58992;SDS011;44782;0.000;0.000;2023-04-22T11:02:01;5.00;;;3.97;;
58992;SDS011;44782;0.000;0.000;2023-04-22T11:04:21;4.57;;;3.90;;
58992;SDS011;44782;0.000;0.000;2023-04-22T11:06:37;4.73;;;4.20;;
58992;SDS011;44782;0.000;0.000;2023-04-22T11:09:05;5.13;;;3.73;;
58992;SDS011;44782;0.000;0.000;2023-04-22T11:11:23;4.57;;;3.87;;
58992;SDS011;44782;0.000;0.000;2023-04-22T11:13:41;5.60;;;3.43;;
58992;SDS011;44782;0.000;0.000;2023-04-22T11:15:57;6.10;;;3.87;;
58992;SDS011;44782;0.000;0.000;2023-04-22T11:18:20;6.00;;;3.43;;
58992;SDS011;44782;0.000;0.000;2023-04-22T11:20:37;5.87;;;3.60;;
58992;SDS011;44782;0.000;0.000;2023-04-22T11:22:54;4.73;;;3.70;;
58992;SDS011;44782;0.000;0.000;2023-04-22T11:25:11;5.77;;;3.30;;
58992;SDS011;44782;0.000;0.000;2023-04-22T11:27:27;4.57;;;3.30;;
58992;SDS011;44782;0.000;0.000;2023-04-22T11:29:54;7.13;;;3.50;;
58992;SDS011;44782;0.000;0.000;2023-04-22T11:32:14;4.23;;;3.27;;
58992;SDS011;44782;0.000;0.000;2023-04-22T11:34:30;6.23;;;3.20;;
58992;SDS011;44782;0.000;0.000;2023-04-22T11:36:46;5.03;;;2.97;;
58992;SDS011;44782;0.000;0.000;2023-04-22T11:39:06;6.27;;;3.40;;
58992;SDS011;44782;0.000;0.000;2023-04-22T11:41:22;5.10;;;3.20;;
58992;SDS011;44782;0.000;0.000;2023-04-22T11:43:44;4.47;;;3.00;;
58992;SDS011;44782;0.000;0.000;2023-04-22T11:46:01;3.70;;;3.30;;
58992;SDS011;44782;0.000;0.000;2023-04-22T11:48:19;6.10;;;3.43;;
58992;SDS011;44782;0.000;0.000;2023-04-22T11:50:35;5.67;;;3.33;;
58992;SDS011;44782;0.000;0.000;2023-04-22T11:52:53;5.20;;;3.87;;
58992;SDS011;44782;0.000;0.000;2023-04-22T11:55:18;5.70;;;3.83;;
58992;SDS011;44782;0.000;0.000;2023-04-22T11:57:37;6.87;;;4.07;;
58992;SDS011;44782;0.000;0.000;2023-04-22T11:59:57;9.63;;;5.20;;
58992;SDS011;44782;0.000;0.000;2023-04-22T12:02:16;7.17;;;5.33;;
58992;SDS011;44782;0.000;0.000;2023-04-22T12:04:37;8.90;;;5.00;;
58992;SDS011;44782;0.000;0.000;2023-04-22T12:06:54;10.53;;;5.43;;
58992;SDS011;44782;0.000;0.000;2023-04-22T12:09:09;7.07;;;5.10;;
58992;SDS011;44782;0.000;0.000;2023-04-22T12:11:26;8.50;;;5.33;;
58992;SDS011;44782;0.000;0.000;2023-04-22T12:13:42;6.70;;;4.80;;
58992;SDS011;44782;0.000;0.000;2023-04-22T12:16:04;7.70;;;4.77;;
58992;SDS011;44782;0.000;0.000;2023-04-22T12:20:46;8.27;;;5.83;;
58992;SDS011;44782;0.000;0.000;2023-04-22T12:23:02;6.93;;;4.67;;
58992;SDS011;44782;0.000;0.000;2023-04-22T12:25:18;6.33;;;4.60;;
58992;SDS011;44782;0.000;0.000;2023-04-22T12:27:34;5.87;;;4.73;;
58992;SDS011;44782;0.000;0.000;2023-04-22T12:29:51;5.77;;;4.70;;
58992;SDS011;44782;0.000;0.000;2023-04-22T12:32:08;4.43;;;4.03;;
58992;SDS011;44782;0.000;0.000;2023-04-22T12:34:23;5.17;;;4.67;;
58992;SDS011;44782;0.000;0.000;2023-04-22T12:36:39;4.93;;;4.17;;
58992;SDS011;44782;0.000;0.000;2023-04-22T12:38:55;5.17;;;4.20;;
58992;SDS011;44782;0.000;0.000;2023-04-22T12:41:10;5.33;;;4.00;;
58992;SDS011;44782;0.000;0.000;2023-04-22T12:43:26;5.10;;;4.13;;
58992;SDS011;44782;0.000;0.000;2023-04-22T12:45:42;4.50;;;4.03;;
58992;SDS011;44782;0.000;0.000;2023-04-22T12:47:58;4.83;;;3.90;;
58992;SDS011;44782;0.000;0.000;2023-04-22T12:50:13;4.90;;;4.30;;
58992;SDS011;44782;0.000;0.000;2023-04-22T12:52:30;4.40;;;4.00;;
58992;SDS011;44782;0.000;0.000;2023-04-22T12:54:45;4.00;;;3.60;;
58992;SDS011;44782;0.000;0.000;2023-04-22T12:57:01;4.03;;;3.47;;
58992;SDS011;44782;0.000;0.000;2023-04-22T12:59:17;6.00;;;3.63;;
58992;SDS011;44782;0.000;0.000;2023-04-22T13:01:33;4.10;;;3.70;;
58992;SDS011;44782;0.000;0.000;2023-04-22T13:03:49;4.33;;;3.50;;
58992;SDS011;44782;0.000;0.000;2023-04-22T13:06:07;6.13;;;3.70;;
58992;SDS011;44782;0.000;0.000;2023-04-22T13:08:22;5.50;;;3.80;;
58992;SDS011;44782;0.000;0.000;2023-04-22T13:10:38;4.63;;;3.77;;
58992;SDS011;44782;0.000;0.000;2023-04-22T13:12:53;3.63;;;3.33;;
58992;SDS011;44782;0.000;0.000;2023-04-22T13:15:09;4.87;;;3.77;;
58992;SDS011;44782;0.000;0.000;2023-04-22T13:17:25;4.17;;;3.33;;
58992;SDS011;44782;0.000;0.000;2023-04-22T13:19:41;3.60;;;3.30;;
58992;SDS011;44782;0.000;0.000;2023-04-22T13:21:57;4.00;;;3.60;;
58992;SDS011;44782;0.000;0.000;2023-04-22T13:24:13;4.73;;;3.30;;
58992;SDS011;44782;0.000;0.000;2023-04-22T13:26:28;3.47;;;3.17;;
58992;SDS011;44782;0.000;0.000;2023-04-22T13:28:44;4.23;;;3.20;;
58992;SDS011;44782;0.000;0.000;2023-04-22T13:31:00;3.83;;;3.23;;
58992;SDS011;44782;0.000;0.000;2023-04-22T13:33:15;3.60;;;3.30;;
58992;SDS011;44782;0.000;0.000;2023-04-22T13:35:31;3.60;;;3.30;;
58992;SDS011;44782;0.000;0.000;2023-04-22T13:37:47;4.03;;;3.63;;
58992;SDS011;44782;0.000;0.000;2023-04-22T13:40:03;4.00;;;3.63;;
58992;SDS011;44782;0.000;0.000;2023-04-22T13:42:20;4.10;;;3.67;;
58992;SDS011;44782;0.000;0.000;2023-04-22T13:44:35;3.77;;;3.47;;
58992;SDS011;44782;0.000;0.000;2023-04-22T13:46:51;3.83;;;3.47;;
58992;SDS011;44782;0.000;0.000;2023-04-22T13:49:07;4.23;;;3.40;;
58992;SDS011;44782;0.000;0.000;2023-04-22T13:51:23;3.67;;;3.37;;
58992;SDS011;44782;0.000;0.000;2023-04-22T13:53:38;4.17;;;3.30;;
58992;SDS011;44782;0.000;0.000;2023-04-22T13:55:57;3.80;;;3.40;;
58992;SDS011;44782;0.000;0.000;2023-04-22T13:58:12;3.77;;;3.43;;
58992;SDS011;44782;0.000;0.000;2023-04-22T14:00:28;4.73;;;3.50;;
58992;SDS011;44782;0.000;0.000;2023-04-22T14:02:44;3.90;;;3.37;;